Time;durP1;ratioP1;P1;durP2;ratioP2;P2;SDS_P1;SDS_P2;PMS_P1;PMS_P2;Temp;Humidity;BMP_temperature;BMP_pressure;BME280_temperature;BME280_humidity;BME280_pressure;Samples;Min_cycle;Max_cycle;Signal;HPM_P1;HPM_P2
2021/06/22 00:00:41;;;;;;;2.70;2.03;;;22.80;99.90;;;;;;4982735;28;20502;-81
2021/06/22 00:03:09;;;;;;;2.13;1.67;;;22.70;99.90;;;;;;4985025;28;20482;-83
2021/06/22 00:05:38;;;;;;;1.60;1.50;;;22.70;99.90;;;;;;4983134;28;20466;-82
2021/06/22 00:08:06;;;;;;;4.73;2.13;;;22.70;99.90;;;;;;4982617;28;20463;-81
2021/06/22 00:10:34;;;;;;;3.27;1.90;;;22.70;99.90;;;;;;4982535;28;20483;-82
2021/06/22 00:13:03;;;;;;;2.10;1.90;;;22.70;99.90;;;;;;4982209;28;20509;-82
2021/06/22 00:15:32;;;;;;;2.63;2.17;;;22.70;99.90;;;;;;4981834;28;20478;-83
2021/06/22 00:18:02;;;;;;;2.63;2.00;;;22.70;99.90;;;;;;4978573;28;20500;-83
2021/06/22 00:20:30;;;;;;;5.33;1.77;;;22.60;1.00;;;;;;4979220;28;20537;-82
2021/06/22 00:22:58;;;;;;;1.93;1.83;;;22.60;1.00;;;;;;4981548;28;20493;-83
2021/06/22 00:25:27;;;;;;;3.00;2.60;;;22.60;1.00;;;;;;4980358;28;20461;-79
2021/06/22 00:27:56;;;;;;;3.73;2.30;;;22.60;1.00;;;;;;4975150;28;20462;-84
2021/06/22 00:30:25;;;;;;;2.80;1.80;;;22.60;1.00;;;;;;4982691;28;20540;-81
2021/06/22 00:32:53;;;;;;;2.33;2.10;;;22.60;1.00;;;;;;4981916;28;20472;-83
2021/06/22 00:35:23;;;;;;;6.87;1.90;;;22.60;1.00;;;;;;4982297;28;20501;-83
2021/06/22 00:37:52;;;;;;;4.40;2.73;;;22.50;99.90;;;;;;4969115;28;20465;-83
2021/06/22 00:40:20;;;;;;;3.03;2.20;;;22.60;42.70;;;;;;4982986;28;20478;-83
2021/06/22 00:42:49;;;;;;;2.20;2.00;;;22.60;57.70;;;;;;4980910;28;20459;-82
2021/06/22 00:45:26;;;;;;;2.50;2.30;;;22.60;1.00;;;;;;5000569;28;20467;-82
2021/06/22 00:47:56;;;;;;;6.90;2.20;;;22.60;1.00;;;;;;4984928;28;20446;-82
2021/06/22 00:50:26;;;;;;;2.43;2.00;;;22.50;22.30;;;;;;4981131;28;20478;-82
2021/06/22 00:52:55;;;;;;;2.77;2.57;;;22.50;41.10;;;;;;4982490;28;20470;-83
2021/06/22 00:55:33;;;;;;;2.70;2.23;;;22.50;40.80;;;;;;4980759;28;20469;-82
2021/06/22 00:58:22;;;;;;;3.40;2.10;;;22.60;99.90;;;;;;4981033;28;20468;-81
2021/06/22 01:00:51;;;;;;;2.60;2.27;;;22.50;18.20;;;;;;4961615;28;20492;-81
2021/06/22 01:03:20;;;;;;;3.40;3.00;;;22.50;5.90;;;;;;4978279;28;20462;-80
2021/06/22 01:05:50;;;;;;;4.23;2.70;;;22.50;1.00;;;;;;4994060;28;20878;-81
2021/06/22 01:08:18;;;;;;;3.20;2.70;;;22.60;1.00;;;;;;4980344;28;21034;-81
2021/06/22 01:10:46;;;;;;;2.80;2.60;;;22.50;1.00;;;;;;4978271;28;20560;-80
2021/06/22 01:13:15;;;;;;;2.73;2.30;;;22.50;99.90;;;;;;4978507;28;20458;-80
2021/06/22 01:15:43;;;;;;;6.00;2.63;;;22.40;1.00;;;;;;4977787;28;20521;-79
2021/06/22 01:18:11;;;;;;;3.80;2.87;;;22.40;1.00;;;;;;4977172;28;20520;-80
2021/06/22 01:20:40;;;;;;;2.93;2.70;;;22.40;1.00;;;;;;4978116;28;20474;-81
2021/06/22 01:23:10;;;;;;;3.00;2.40;;;22.30;1.00;;;;;;4978089;28;20492;-81
2021/06/22 01:25:38;;;;;;;3.50;2.37;;;22.40;1.00;;;;;;4977095;28;20545;-81
2021/06/22 01:28:07;;;;;;;3.00;2.17;;;22.40;12.90;;;;;;4977110;28;20491;-81
2021/06/22 01:30:36;;;;;;;3.40;2.03;;;22.40;99.90;;;;;;4976034;28;20480;-80
2021/06/22 01:33:05;;;;;;;2.23;2.00;;;22.30;99.90;;;;;;4970856;28;20937;-82
2021/06/22 01:35:34;;;;;;;2.10;1.87;;;22.30;99.90;;;;;;4977577;28;20454;-80
2021/06/22 01:38:05;;;;;;;1.70;1.60;;;22.30;99.90;;;;;;4976675;28;20470;-81
2021/06/22 01:40:42;;;;;;;2.20;1.30;;;22.30;99.90;;;;;;4978165;28;20480;-82
2021/06/22 01:43:10;;;;;;;2.27;1.50;;;22.30;1.00;;;;;;4978652;28;20458;-82
2021/06/22 01:45:39;;;;;;;4.47;2.13;;;22.30;1.00;;;;;;4977857;28;20487;-82
2021/06/22 01:48:07;;;;;;;4.13;1.63;;;22.30;1.00;;;;;;4977801;28;20996;-82
2021/06/22 01:50:35;;;;;;;1.93;1.40;;;22.20;66.40;;;;;;4976190;28;20724;-82
2021/06/22 01:53:03;;;;;;;3.57;1.23;;;22.20;1.00;;;;;;4966008;28;20460;-81
2021/06/22 01:55:36;;;;;;;1.90;1.40;;;22.20;21.90;;;;;;4977939;28;20886;-82
2021/06/22 01:58:08;;;;;;;1.30;1.20;;;22.20;1.00;;;;;;4981152;28;20453;-82
2021/06/22 02:00:37;;;;;;;2.00;1.43;;;22.20;1.00;;;;;;4977725;28;21049;-82
2021/06/22 02:03:06;;;;;;;2.80;1.60;;;22.20;1.00;;;;;;4981431;28;20471;-83
2021/06/22 02:05:34;;;;;;;4.50;1.40;;;22.20;1.00;;;;;;4980002;28;20477;-81
2021/06/22 02:08:02;;;;;;;1.73;1.43;;;22.20;1.00;;;;;;4981575;28;20504;-81
2021/06/22 02:10:30;;;;;;;1.50;1.40;;;22.10;1.00;;;;;;4979826;28;20472;-81
2021/06/22 02:12:58;;;;;;;1.87;1.27;;;22.10;1.00;;;;;;4982652;28;20456;-81
2021/06/22 02:15:28;;;;;;;1.50;1.40;;;22.10;7.60;;;;;;4978567;28;20452;-81
2021/06/22 02:17:57;;;;;;;1.50;1.40;;;22.10;1.00;;;;;;4979728;28;20460;-80
2021/06/22 02:20:25;;;;;;;2.30;1.97;;;22.00;1.00;;;;;;4972883;28;20518;-80
2021/06/22 02:22:53;;;;;;;1.50;1.40;;;22.10;1.00;;;;;;4980557;28;20532;-81
2021/06/22 02:25:21;;;;;;;2.73;2.20;;;22.00;1.00;;;;;;4978146;28;20489;-81
2021/06/22 02:27:51;;;;;;;2.30;1.27;;;22.00;1.00;;;;;;4978725;28;20464;-82
2021/06/22 02:30:20;;;;;;;1.83;1.60;;;21.90;1.00;;;;;;4961097;28;20491;-82
2021/06/22 02:32:50;;;;;;;1.50;1.40;;;21.90;41.40;;;;;;4982689;28;20452;-80
2021/06/22 02:35:18;;;;;;;2.30;1.70;;;21.90;99.90;;;;;;4975152;28;20973;-81
2021/06/22 02:37:51;;;;;;;1.80;1.20;;;21.90;99.90;;;;;;4978920;28;20487;-79
2021/06/22 02:40:20;;;;;;;1.80;1.60;;;21.90;99.90;;;;;;4978687;28;20724;-82
2021/06/22 02:42:49;;;;;;;1.63;1.53;;;21.90;1.00;;;;;;4978615;28;20525;-82
2021/06/22 02:45:17;;;;;;;2.30;1.50;;;21.90;1.00;;;;;;4975729;28;21004;-81
2021/06/22 02:47:47;;;;;;;2.67;1.70;;;21.80;1.00;;;;;;4964888;28;20511;-81
2021/06/22 02:50:17;;;;;;;3.60;1.73;;;21.80;1.00;;;;;;4989509;28;20489;-82
2021/06/22 02:52:46;;;;;;;3.77;1.90;;;21.80;1.00;;;;;;4977502;28;20878;-82
2021/06/22 02:55:19;;;;;;;1.70;1.47;;;21.90;1.00;;;;;;4977491;28;20470;-81
2021/06/22 02:57:51;;;;;;;2.70;1.50;;;21.90;1.00;;;;;;4977725;28;20468;-81
2021/06/22 03:00:22;;;;;;;1.80;1.53;;;21.90;1.00;;;;;;4977102;28;20488;-82
2021/06/22 03:02:50;;;;;;;2.13;1.67;;;21.90;1.00;;;;;;4978616;28;20461;-82
2021/06/22 03:05:21;;;;;;;1.70;1.60;;;21.80;2.30;;;;;;4979668;28;20479;-81
2021/06/22 03:07:50;;;;;;;2.63;2.17;;;21.80;99.90;;;;;;4975859;28;20465;-82
2021/06/22 03:10:21;;;;;;;1.67;1.57;;;21.80;99.90;;;;;;4979242;28;20486;-81
2021/06/22 03:12:49;;;;;;;2.53;1.80;;;21.80;99.90;;;;;;4964566;28;20500;-81
2021/06/22 03:15:19;;;;;;;3.43;2.13;;;21.80;99.90;;;;;;4973692;28;20461;-80
2021/06/22 03:17:49;;;;;;;1.73;1.63;;;21.80;91.90;;;;;;4982296;28;20548;-82
2021/06/22 03:20:19;;;;;;;5.10;2.60;;;21.80;99.90;;;;;;4985541;28;20505;-82
2021/06/22 03:22:48;;;;;;;2.30;2.10;;;21.80;99.90;;;;;;4974941;28;20486;-81
2021/06/22 03:25:16;;;;;;;2.57;2.20;;;21.80;99.90;;;;;;4971499;28;20483;-82
2021/06/22 03:27:45;;;;;;;2.53;2.33;;;21.80;99.90;;;;;;4974779;28;20474;-82
2021/06/22 03:30:14;;;;;;;2.90;2.60;;;21.80;99.90;;;;;;4975869;28;20559;-82
2021/06/22 03:32:46;;;;;;;1.93;1.73;;;21.80;54.30;;;;;;4977137;28;20525;-82
2021/06/22 03:35:15;;;;;;;3.17;1.83;;;21.80;99.90;;;;;;4977210;28;20950;-83
2021/06/22 03:37:45;;;;;;;2.07;1.87;;;21.80;99.90;;;;;;4975864;28;20465;-82
2021/06/22 03:40:14;;;;;;;2.67;1.73;;;21.80;99.90;;;;;;4975549;28;20854;-82
2021/06/22 03:42:46;;;;;;;2.47;1.70;;;21.70;99.90;;;;;;4975394;28;21110;-82
2021/06/22 03:45:16;;;;;;;2.80;2.00;;;21.70;1.00;;;;;;4977640;28;20459;-83
2021/06/22 03:47:44;;;;;;;2.47;2.27;;;21.70;1.00;;;;;;4975361;28;20526;-82
2021/06/22 03:50:14;;;;;;;1.83;1.60;;;21.70;1.00;;;;;;4981524;28;20460;-82
2021/06/22 03:52:42;;;;;;;1.90;1.80;;;21.70;1.00;;;;;;4976623;28;20468;-82
2021/06/22 03:55:28;;;;;;;2.40;2.20;;;21.60;63.50;;;;;;4973262;28;20479;-82
2021/06/22 03:57:59;;;;;;;2.57;1.90;;;21.70;1.00;;;;;;4974851;28;20858;-82
2021/06/22 04:00:28;;;;;;;2.33;1.57;;;21.70;1.00;;;;;;4973211;28;20477;-81
2021/06/22 04:02:58;;;;;;;2.30;2.10;;;21.70;90.80;;;;;;4975910;28;20500;-81
2021/06/22 04:05:27;;;;;;;2.40;2.20;;;21.60;75.80;;;;;;4990150;28;20484;-81
2021/06/22 04:07:56;;;;;;;4.30;2.90;;;21.70;99.90;;;;;;4976689;28;20462;-80
2021/06/22 04:10:26;;;;;;;3.97;2.80;;;21.70;99.90;;;;;;4975460;28;20562;-81
2021/06/22 04:12:54;;;;;;;2.20;2.10;;;21.70;1.00;;;;;;4975836;28;20527;-83
2021/06/22 04:15:23;;;;;;;3.00;2.80;;;21.70;1.00;;;;;;4975742;28;21484;-81
2021/06/22 04:17:51;;;;;;;2.03;1.87;;;21.80;1.00;;;;;;4976321;28;20491;-82
2021/06/22 04:20:20;;;;;;;2.97;1.80;;;21.80;1.00;;;;;;4970801;28;20479;-83
2021/06/22 04:22:48;;;;;;;2.57;2.37;;;21.80;89.50;;;;;;4983465;28;20460;-83
2021/06/22 04:25:16;;;;;;;2.73;2.53;;;21.80;99.90;;;;;;4970322;28;20858;-82
2021/06/22 04:27:45;;;;;;;2.63;2.43;;;21.70;99.90;;;;;;4975444;28;20450;-78
2021/06/22 04:30:14;;;;;;;2.50;1.90;;;21.80;99.90;;;;;;4971739;28;20459;-76
2021/06/22 04:32:42;;;;;;;2.30;2.10;;;21.70;99.90;;;;;;4968735;28;20477;-76
2021/06/22 04:35:12;;;;;;;2.60;2.40;;;21.60;99.90;;;;;;4970148;28;20456;-76
2021/06/22 04:37:41;;;;;;;3.53;2.40;;;21.60;1.00;;;;;;4968530;28;20459;-74
2021/06/22 04:40:11;;;;;;;2.87;2.57;;;21.50;99.90;;;;;;4968722;28;20514;-76
2021/06/22 04:42:39;;;;;;;4.00;2.97;;;21.50;99.90;;;;;;4967306;28;20946;-77
2021/06/22 04:45:10;;;;;;;4.03;2.53;;;21.40;65.70;;;;;;4971559;28;20486;-76
2021/06/22 04:47:38;;;;;;;2.73;2.50;;;21.30;99.90;;;;;;4976582;28;20890;-76
2021/06/22 04:50:08;;;;;;;3.10;2.80;;;21.20;99.90;;;;;;4968946;28;20482;-76
2021/06/22 04:52:38;;;;;;;3.70;2.77;;;21.20;1.00;;;;;;4968793;28;20461;-76
2021/06/22 04:55:12;;;;;;;3.40;3.20;;;21.20;1.00;;;;;;4967077;28;20523;-76
2021/06/22 04:57:40;;;;;;;3.30;2.90;;;21.20;99.90;;;;;;4959874;28;20463;-78
2021/06/22 05:00:12;;;;;;;3.63;3.20;;;21.20;1.00;;;;;;4973745;28;20447;-76
2021/06/22 05:02:41;;;;;;;3.83;2.67;;;21.20;99.90;;;;;;4968537;28;20459;-74
2021/06/22 05:05:11;;;;;;;2.90;2.70;;;21.20;99.90;;;;;;4962562;28;20463;-76
2021/06/22 05:07:40;;;;;;;3.03;2.83;;;21.20;99.90;;;;;;4967322;28;20506;-75
2021/06/22 05:10:09;;;;;;;2.73;2.53;;;21.20;1.00;;;;;;4968841;28;20459;-76
2021/06/22 05:12:37;;;;;;;2.77;2.57;;;21.50;39.30;;;;;;4967939;28;20463;-74
2021/06/22 05:15:07;;;;;;;3.50;3.20;;;21.30;99.90;;;;;;4968384;28;20461;-76
2021/06/22 05:17:36;;;;;;;3.57;3.27;;;21.20;99.90;;;;;;4966580;28;20476;-77
2021/06/22 05:20:05;;;;;;;3.07;2.87;;;21.20;42.90;;;;;;4968436;28;20518;-75
2021/06/22 05:22:34;;;;;;;3.20;2.87;;;21.20;99.90;;;;;;4968034;28;20494;-78
2021/06/22 05:25:04;;;;;;;4.10;3.80;;;21.30;99.90;;;;;;4959315;28;20455;-78
2021/06/22 05:27:32;;;;;;;3.60;2.73;;;21.40;99.90;;;;;;4966127;28;20475;-78
2021/06/22 05:30:00;;;;;;;3.20;3.00;;;21.40;99.20;;;;;;4971030;28;20449;-79
2021/06/22 05:32:28;;;;;;;3.80;3.47;;;21.60;77.30;;;;;;4973035;28;20590;-79
2021/06/22 05:34:58;;;;;;;3.27;3.00;;;21.60;99.90;;;;;;4974524;28;20557;-79
2021/06/22 05:37:26;;;;;;;3.27;3.07;;;21.70;96.60;;;;;;4972403;28;20458;-78
2021/06/22 05:39:54;;;;;;;2.97;2.67;;;21.70;99.90;;;;;;4976723;28;20479;-80
2021/06/22 05:42:22;;;;;;;3.80;2.20;;;21.80;1.00;;;;;;4972855;28;20519;-80
2021/06/22 05:44:51;;;;;;;3.37;3.17;;;21.80;1.00;;;;;;4973288;28;20485;-79
2021/06/22 05:47:19;;;;;;;3.53;2.50;;;21.90;27.60;;;;;;4974389;28;20982;-81
2021/06/22 05:49:47;;;;;;;3.00;2.80;;;21.90;1.00;;;;;;4973717;28;20467;-78
2021/06/22 05:52:16;;;;;;;3.63;2.90;;;21.90;1.00;;;;;;4971623;28;20482;-79
2021/06/22 05:54:46;;;;;;;3.07;2.63;;;22.00;99.90;;;;;;4974118;28;20942;-79
2021/06/22 05:57:15;;;;;;;3.63;3.30;;;22.10;1.00;;;;;;4967850;28;20469;-77
2021/06/22 05:59:43;;;;;;;4.33;3.00;;;22.00;1.00;;;;;;4971336;28;20501;-78
2021/06/22 06:02:11;;;;;;;3.23;3.03;;;22.00;99.90;;;;;;4970672;28;21103;-76
2021/06/22 06:04:39;;;;;;;3.17;2.87;;;22.10;1.00;;;;;;4973326;28;20501;-77
2021/06/22 06:07:07;;;;;;;2.80;2.60;;;22.00;99.90;;;;;;4972652;28;21225;-79
2021/06/22 06:09:37;;;;;;;3.10;2.80;;;22.10;99.90;;;;;;4972076;28;20496;-79
2021/06/22 06:12:06;;;;;;;2.63;2.43;;;22.10;1.00;;;;;;4971631;28;20482;-79
2021/06/22 06:14:34;;;;;;;3.27;2.97;;;22.20;1.00;;;;;;4972816;28;20518;-79
2021/06/22 06:17:02;;;;;;;5.50;2.77;;;22.20;99.90;;;;;;4971902;28;20474;-79
2021/06/22 06:19:32;;;;;;;3.90;3.60;;;22.20;99.90;;;;;;4971746;28;20497;-79
2021/06/22 06:22:02;;;;;;;4.10;3.70;;;22.10;1.00;;;;;;4973093;28;20471;-79
2021/06/22 06:24:30;;;;;;;4.67;4.13;;;22.20;1.00;;;;;;4966204;28;20879;-78
2021/06/22 06:27:04;;;;;;;3.07;2.87;;;22.20;1.00;;;;;;4971325;28;21035;-79
2021/06/22 06:29:41;;;;;;;4.63;4.23;;;22.20;1.00;;;;;;4972573;28;20978;-80
2021/06/22 06:32:10;;;;;;;9.07;4.17;;;22.20;1.00;;;;;;4971240;28;20492;-79
2021/06/22 06:34:38;;;;;;;3.70;3.40;;;22.30;1.00;;;;;;4973395;28;20462;-78
2021/06/22 06:37:06;;;;;;;4.30;4.00;;;22.30;99.90;;;;;;4972053;28;20820;-79
2021/06/22 06:39:35;;;;;;;3.80;3.47;;;22.30;1.00;;;;;;4970976;28;20516;-79
2021/06/22 06:42:05;;;;;;;3.70;3.40;;;22.30;99.90;;;;;;4969268;28;20489;-79
2021/06/22 06:44:33;;;;;;;4.20;3.90;;;22.30;1.00;;;;;;4973583;28;20517;-80
2021/06/22 06:47:01;;;;;;;3.33;3.13;;;22.30;1.00;;;;;;4971325;28;20480;-79
2021/06/22 06:49:30;;;;;;;3.10;2.80;;;22.40;99.90;;;;;;4969962;28;20472;-80
2021/06/22 06:51:58;;;;;;;3.17;2.80;;;22.40;99.90;;;;;;4971814;28;20478;-80
2021/06/22 06:54:26;;;;;;;2.97;2.77;;;22.40;1.00;;;;;;4970978;28;20464;-77
2021/06/22 06:56:54;;;;;;;12.93;3.40;;;22.50;1.00;;;;;;4969388;28;20469;-80
2021/06/22 06:59:24;;;;;;;3.20;2.93;;;22.50;99.90;;;;;;4964492;28;20881;-81
2021/06/22 07:01:52;;;;;;;2.23;2.03;;;22.50;99.90;;;;;;4970795;28;20479;-82
2021/06/22 07:04:20;;;;;;;2.47;2.37;;;22.60;99.90;;;;;;4971398;28;20478;-81
2021/06/22 07:06:48;;;;;;;2.83;2.33;;;22.60;99.90;;;;;;4971795;28;20490;-80
2021/06/22 07:09:16;;;;;;;2.60;2.40;;;22.70;1.00;;;;;;4965423;28;20471;-82
2021/06/22 07:11:45;;;;;;;2.90;2.10;;;22.70;1.00;;;;;;4969668;28;20486;-81
2021/06/22 07:14:14;;;;;;;2.83;2.63;;;22.80;1.00;;;;;;4970819;28;20525;-81
2021/06/22 07:16:47;;;;;;;2.47;2.27;;;22.80;1.00;;;;;;4970318;28;20462;-82
2021/06/22 07:19:16;;;;;;;4.10;1.90;;;22.90;1.00;;;;;;4970571;28;20612;-82
2021/06/22 07:21:45;;;;;;;2.30;2.20;;;22.90;99.90;;;;;;4969730;28;20489;-82
2021/06/22 07:24:13;;;;;;;2.10;1.83;;;22.80;1.00;;;;;;4969311;28;20459;-82
2021/06/22 07:26:41;;;;;;;2.17;1.87;;;22.80;1.00;;;;;;4971258;28;20821;-81
2021/06/22 07:29:09;;;;;;;2.80;2.13;;;22.70;99.90;;;;;;4971358;28;20495;-81
2021/06/22 07:31:38;;;;;;;2.33;2.10;;;22.70;1.00;;;;;;4970909;28;20506;-80
2021/06/22 07:34:07;;;;;;;1.83;1.73;;;22.70;1.00;;;;;;4968945;28;20459;-82
2021/06/22 07:36:36;;;;;;;3.90;1.63;;;22.70;99.90;;;;;;4971960;28;20462;-82
2021/06/22 07:39:04;;;;;;;1.80;1.50;;;22.60;99.90;;;;;;4971792;28;20466;-81
2021/06/22 07:41:33;;;;;;;7.20;1.93;;;22.50;99.90;;;;;;4972372;28;20541;-82
2021/06/22 07:44:01;;;;;;;2.70;1.77;;;22.60;1.00;;;;;;4972455;28;20457;-79
2021/06/22 07:46:29;;;;;;;1.63;1.50;;;22.60;1.00;;;;;;4970234;28;20987;-82
2021/06/22 07:48:58;;;;;;;2.63;1.57;;;22.60;1.00;;;;;;4974375;28;20481;-81
2021/06/22 07:51:27;;;;;;;5.17;1.93;;;22.70;1.00;;;;;;4968520;28;20486;-81
2021/06/22 07:53:57;;;;;;;5.30;2.10;;;22.70;1.00;;;;;;4971619;28;20462;-81
2021/06/22 07:56:25;;;;;;;1.60;1.50;;;22.80;1.00;;;;;;4971570;28;20465;-82
2021/06/22 07:58:53;;;;;;;1.67;1.20;;;22.90;99.90;;;;;;4969874;28;20451;-82
2021/06/22 08:01:21;;;;;;;1.60;1.50;;;22.80;99.90;;;;;;4980436;28;20484;-80
2021/06/22 08:03:50;;;;;;;2.90;1.30;;;22.90;65.50;;;;;;4973469;28;21186;-81
2021/06/22 08:06:18;;;;;;;1.20;1.10;;;22.80;66.20;;;;;;4972876;28;20485;-80
2021/06/22 08:08:47;;;;;;;1.77;1.67;;;22.90;93.10;;;;;;4972186;28;20486;-80
2021/06/22 08:11:15;;;;;;;3.37;1.50;;;22.90;99.90;;;;;;4968619;28;20506;-80
2021/06/22 08:13:43;;;;;;;1.50;1.40;;;23.00;99.90;;;;;;4972183;28;20538;-80
2021/06/22 08:16:12;;;;;;;1.67;1.57;;;23.00;99.90;;;;;;4970775;28;20456;-81
2021/06/22 08:18:40;;;;;;;6.37;1.90;;;23.00;99.90;;;;;;4973864;28;20454;-80
2021/06/22 08:21:08;;;;;;;3.80;2.73;;;23.00;99.90;;;;;;4972059;28;20944;-81
2021/06/22 08:23:37;;;;;;;2.27;1.70;;;22.90;99.90;;;;;;4972789;28;20472;-81
2021/06/22 08:26:06;;;;;;;2.67;1.47;;;23.00;99.90;;;;;;4974512;28;20458;-80
2021/06/22 08:28:34;;;;;;;2.10;1.80;;;22.90;99.90;;;;;;4970270;28;20482;-81
2021/06/22 08:31:02;;;;;;;2.20;1.67;;;22.90;99.90;;;;;;4973617;28;20529;-79
2021/06/22 08:33:31;;;;;;;2.23;1.97;;;22.90;99.90;;;;;;4972903;28;20477;-80
2021/06/22 08:35:59;;;;;;;4.53;1.80;;;22.90;99.90;;;;;;4969481;28;21016;-80
2021/06/22 08:38:27;;;;;;;6.80;1.80;;;22.80;95.40;;;;;;4970495;28;21163;-81
2021/06/22 08:40:55;;;;;;;2.47;1.50;;;22.80;99.90;;;;;;4973898;28;20513;-80
2021/06/22 08:43:25;;;;;;;1.70;1.47;;;22.80;99.90;;;;;;4973574;28;20465;-79
2021/06/22 08:45:53;;;;;;;1.80;1.70;;;22.90;99.90;;;;;;4978460;28;20450;-81
2021/06/22 08:48:21;;;;;;;1.50;1.40;;;22.90;99.90;;;;;;4990078;28;21048;-81
2021/06/22 08:50:51;;;;;;;2.27;2.07;;;23.00;1.00;;;;;;4973196;28;20479;-80
2021/06/22 08:53:19;;;;;;;2.63;1.63;;;23.00;1.00;;;;;;4970849;28;20455;-79
2021/06/22 08:55:47;;;;;;;2.13;1.43;;;23.00;1.00;;;;;;4972766;28;20469;-82
2021/06/22 08:58:19;;;;;;;3.40;1.60;;;23.00;1.00;;;;;;4969656;28;20463;-81
2021/06/22 09:00:50;;;;;;;2.27;2.07;;;23.00;1.00;;;;;;4970870;28;20494;-82
2021/06/22 09:03:23;;;;;;;1.60;1.50;;;23.00;1.00;;;;;;4972198;28;20462;-81
2021/06/22 09:05:54;;;;;;;3.90;2.63;;;23.00;1.00;;;;;;4974304;28;21049;-80
2021/06/22 09:08:24;;;;;;;2.60;1.80;;;23.10;1.00;;;;;;4990257;28;20483;-80
2021/06/22 09:10:54;;;;;;;2.77;2.20;;;23.00;1.00;;;;;;4975713;28;21263;-79
2021/06/22 09:13:24;;;;;;;3.50;2.10;;;23.00;1.00;;;;;;4975743;28;20517;-80
2021/06/22 09:15:55;;;;;;;2.07;1.87;;;23.10;99.90;;;;;;4976239;28;20475;-82
2021/06/22 09:18:29;;;;;;;2.20;1.83;;;23.10;99.90;;;;;;4969559;28;20456;-80
2021/06/22 09:20:59;;;;;;;3.23;2.20;;;23.10;1.00;;;;;;4967387;28;20487;-81
2021/06/22 09:23:30;;;;;;;1.80;1.70;;;23.10;1.00;;;;;;4964995;28;21097;-80
2021/06/22 09:25:59;;;;;;;3.40;2.10;;;23.10;1.00;;;;;;4973371;28;20462;-79
2021/06/22 09:28:30;;;;;;;1.80;1.70;;;23.10;97.40;;;;;;4967651;28;20475;-78
2021/06/22 09:31:02;;;;;;;2.17;1.80;;;23.10;12.60;;;;;;4967719;28;20544;-78
2021/06/22 09:33:33;;;;;;;2.37;2.10;;;23.20;1.00;;;;;;4973388;28;20530;-78
2021/06/22 09:36:05;;;;;;;3.10;2.07;;;23.20;99.90;;;;;;4972094;28;20445;-75
2021/06/22 09:38:36;;;;;;;2.20;2.10;;;23.10;1.00;;;;;;4972106;28;20443;-78
2021/06/22 09:41:13;;;;;;;4.30;2.13;;;23.10;1.00;;;;;;4973249;28;21224;-79
2021/06/22 09:43:43;;;;;;;4.90;2.47;;;23.10;1.00;;;;;;4972603;28;20465;-80
2021/06/22 09:46:14;;;;;;;2.50;2.30;;;23.20;1.00;;;;;;4972733;28;20700;-80
2021/06/22 09:48:55;;;;;;;2.83;2.63;;;23.10;1.00;;;;;;4975054;28;20548;-80
2021/06/22 09:51:30;;;;;;;4.37;2.80;;;23.20;1.00;;;;;;4969759;28;20515;-81
2021/06/22 09:54:26;;;;;;;3.00;2.80;;;23.10;1.00;;;;;;4978448;28;20505;-80
2021/06/22 09:56:57;;;;;;;5.13;2.37;;;23.10;20.00;;;;;;4974116;28;20860;-79
2021/06/22 09:59:27;;;;;;;3.70;3.13;;;23.00;99.90;;;;;;4977245;28;20525;-81
2021/06/22 10:02:08;;;;;;;3.60;3.10;;;23.00;99.90;;;;;;4977160;28;20484;-81
2021/06/22 10:04:37;;;;;;;4.30;4.00;;;23.00;1.00;;;;;;4976163;28;20449;-80
2021/06/22 10:07:10;;;;;;;3.63;3.33;;;23.10;1.00;;;;;;4973659;28;20478;-79
2021/06/22 10:09:39;;;;;;;4.03;3.63;;;23.10;99.90;;;;;;4973166;28;20481;-79
2021/06/22 10:12:10;;;;;;;3.27;3.07;;;23.00;60.30;;;;;;4971940;28;20532;-78
2021/06/22 10:14:39;;;;;;;5.50;3.40;;;23.00;99.90;;;;;;4974259;28;20587;-78
2021/06/22 10:17:10;;;;;;;3.70;3.40;;;23.00;99.90;;;;;;4975181;28;20451;-79
2021/06/22 10:19:41;;;;;;;4.20;2.70;;;23.00;99.90;;;;;;4972800;28;20542;-81
2021/06/22 10:22:09;;;;;;;5.37;3.80;;;23.00;99.90;;;;;;4972103;28;20487;-78
2021/06/22 10:24:42;;;;;;;4.13;3.80;;;22.90;99.90;;;;;;4973241;28;20459;-78
2021/06/22 10:27:11;;;;;;;4.03;3.63;;;23.00;99.90;;;;;;4967605;28;20802;-79
2021/06/22 10:29:39;;;;;;;3.50;3.20;;;22.90;99.90;;;;;;4973203;28;20491;-79
2021/06/22 10:32:09;;;;;;;4.47;3.33;;;22.90;99.90;;;;;;4971731;28;21056;-79
2021/06/22 10:34:38;;;;;;;3.67;3.00;;;22.90;99.90;;;;;;4972866;28;20455;-79
2021/06/22 10:37:12;;;;;;;2.80;2.30;;;22.80;99.90;;;;;;4966716;28;20889;-79
2021/06/22 10:39:48;;;;;;;3.60;3.30;;;22.90;99.90;;;;;;4970473;28;20535;-78
2021/06/22 10:42:16;;;;;;;5.03;2.60;;;22.90;1.00;;;;;;4970699;28;20471;-79
2021/06/22 10:44:50;;;;;;;3.03;2.40;;;22.90;1.00;;;;;;4972666;28;20524;-78
2021/06/22 10:47:29;;;;;;;3.30;3.00;;;22.90;99.90;;;;;;4974044;28;20521;-78
2021/06/22 10:50:23;;;;;;;3.60;3.30;;;22.90;1.00;;;;;;4966844;28;20853;-78
2021/06/22 10:53:00;;;;;;;3.67;2.93;;;22.80;99.90;;;;;;4970751;28;20463;-79
2021/06/22 10:55:56;;;;;;;3.17;2.90;;;22.80;94.80;;;;;;4971175;28;20461;-78
2021/06/22 10:58:24;;;;;;;3.07;2.77;;;22.80;54.60;;;;;;4970972;28;20462;-78
2021/06/22 11:01:18;;;;;;;3.50;3.30;;;22.70;99.90;;;;;;4970288;28;20471;-80
2021/06/22 11:04:05;;;;;;;5.80;4.07;;;22.70;9.80;;;;;;4969409;28;20538;-78
2021/06/22 11:06:34;;;;;;;4.30;4.00;;;22.70;99.90;;;;;;4970533;28;21260;-80
2021/06/22 11:09:20;;;;;;;3.10;2.90;;;22.70;82.90;;;;;;4972605;28;20493;-80
2021/06/22 11:11:48;;;;;;;3.50;3.20;;;22.70;99.90;;;;;;4970589;28;20472;-80
2021/06/22 11:14:17;;;;;;;4.43;4.03;;;22.70;99.90;;;;;;4971368;28;20548;-79
2021/06/22 11:16:46;;;;;;;5.10;3.80;;;22.60;99.90;;;;;;4971030;28;20536;-78
2021/06/22 11:19:17;;;;;;;3.40;3.20;;;22.60;99.90;;;;;;4971275;28;20549;-80
2021/06/22 11:21:56;;;;;;;4.10;3.80;;;22.60;99.90;;;;;;4970217;28;20518;-78
2021/06/22 11:24:27;;;;;;;3.57;3.23;;;22.60;99.90;;;;;;4968823;28;20454;-80
2021/06/22 11:27:02;;;;;;;4.03;3.73;;;22.60;99.90;;;;;;4967762;28;20562;-80
2021/06/22 11:29:51;;;;;;;4.93;3.63;;;22.60;99.90;;;;;;4968821;28;20473;-80
2021/06/22 11:32:35;;;;;;;4.57;4.10;;;22.50;99.90;;;;;;4967326;28;20532;-80
2021/06/22 11:35:11;;;;;;;5.80;3.77;;;22.50;99.90;;;;;;4969513;28;20455;-79
2021/06/22 11:37:40;;;;;;;4.83;4.17;;;22.50;1.00;;;;;;4961972;28;20473;-79
2021/06/22 11:40:16;;;;;;;4.37;3.40;;;22.50;99.90;;;;;;4969525;28;20455;-81
2021/06/22 11:42:45;;;;;;;3.97;3.53;;;22.60;99.90;;;;;;4966861;28;20509;-80
2021/06/22 11:45:24;;;;;;;3.60;3.40;;;22.60;99.90;;;;;;4969072;28;20509;-80
2021/06/22 11:47:55;;;;;;;4.50;3.17;;;22.60;1.00;;;;;;4969073;28;20643;-79
2021/06/22 11:50:37;;;;;;;3.73;3.43;;;22.50;12.00;;;;;;4966969;28;20494;-79
2021/06/22 11:53:14;;;;;;;3.13;2.93;;;22.50;57.70;;;;;;4966977;28;20479;-80
2021/06/22 11:55:55;;;;;;;3.07;2.77;;;22.50;1.00;;;;;;4969447;28;20492;-79
2021/06/22 11:58:28;;;;;;;3.03;2.83;;;22.50;1.00;;;;;;4968415;28;20561;-82
2021/06/22 12:00:58;;;;;;;3.40;3.10;;;22.50;1.00;;;;;;4967540;28;20509;-79
2021/06/22 12:03:32;;;;;;;4.53;2.43;;;22.50;1.00;;;;;;4971839;28;20445;-79
2021/06/22 12:06:12;;;;;;;2.90;2.70;;;22.50;1.00;;;;;;4970779;28;20458;-80
2021/06/22 12:08:41;;;;;;;3.10;2.80;;;22.40;1.00;;;;;;4972330;28;20450;-80
2021/06/22 12:11:10;;;;;;;2.90;2.60;;;22.50;1.00;;;;;;4971691;28;21078;-79
2021/06/22 12:13:41;;;;;;;3.20;2.47;;;22.40;1.00;;;;;;4973709;28;20462;-80
2021/06/22 12:16:22;;;;;;;3.33;2.63;;;22.50;1.00;;;;;;4973788;28;20465;-81
2021/06/22 12:18:52;;;;;;;2.20;2.00;;;22.50;99.90;;;;;;4970342;28;20462;-80
2021/06/22 12:21:22;;;;;;;2.67;2.30;;;22.40;99.90;;;;;;4973029;28;20489;-80
2021/06/22 12:23:50;;;;;;;3.80;2.23;;;22.40;99.90;;;;;;4969983;28;20451;-80
2021/06/22 12:26:19;;;;;;;4.90;2.07;;;22.30;99.90;;;;;;4968977;28;20482;-80
2021/06/22 12:28:47;;;;;;;2.17;1.97;;;22.30;1.00;;;;;;4975365;28;20529;-80
2021/06/22 12:31:15;;;;;;;2.60;2.40;;;22.20;1.00;;;;;;4967232;28;20486;-80
2021/06/22 12:33:45;;;;;;;4.00;2.90;;;22.10;1.00;;;;;;4969022;28;20461;-80
2021/06/22 12:36:18;;;;;;;4.13;2.43;;;22.20;99.90;;;;;;4971213;28;20538;-80
2021/06/22 12:38:55;;;;;;;113.60;52.30;;;22.20;7.70;;;;;;4970938;28;20463;-79
2021/06/22 12:41:29;;;;;;;9.87;7.60;;;22.20;99.90;;;;;;4963050;28;20465;-82
2021/06/22 12:43:58;;;;;;;4.40;4.00;;;22.30;1.00;;;;;;4969477;28;20462;-80
2021/06/22 12:46:28;;;;;;;3.43;2.73;;;22.20;99.90;;;;;;4968896;28;20875;-79
2021/06/22 12:48:58;;;;;;;3.40;2.90;;;22.10;23.00;;;;;;4968896;28;20985;-82
2021/06/22 12:51:31;;;;;;;3.80;2.93;;;22.20;1.00;;;;;;4968761;28;21016;-80
2021/06/22 12:54:03;;;;;;;2.93;2.63;;;22.20;99.90;;;;;;4983552;28;20516;-80
2021/06/22 12:56:32;;;;;;;4.03;3.30;;;22.40;1.00;;;;;;4965265;28;20461;-80
2021/06/22 12:59:08;;;;;;;3.60;3.30;;;22.40;1.00;;;;;;4967559;28;20453;-79
2021/06/22 13:01:38;;;;;;;5.43;2.70;;;22.30;44.50;;;;;;4974911;28;20481;-81
2021/06/22 13:04:09;;;;;;;2.40;2.30;;;22.60;1.00;;;;;;4969701;28;20454;-81
2021/06/22 13:06:39;;;;;;;3.27;2.73;;;22.60;99.90;;;;;;4970030;28;20457;-80